Terminal Aerodrome Forecast
Issued by NWS

Home | Current Version | Previous Version | Text Only | Print | Product List | Glossary On
Versions: 1 2 3 4 5 6 7 8 9 10 11 12 13 14 15
000
FTUS41 KBOX 230529
TAFHYA
TAF
KHYA 230529Z 2306/2406 22006KT 5SM BR BKN005
     FM231100 25006KT P6SM SCT250
     FM231300 27008KT P6SM BKN080
     FM231800 27012KT P6SM BKN040
     FM232200 30014G24KT P6SM BKN035
     FM240200 32017G32KT P6SM BKN040=

USA.gov is the U.S. government's official web portal to all federal, state and local government web resources and services.